Wadsworth, Texas
Current Conditions -  °F | °C
As of 2:35 PM on Sunday 25 Jan 2015 (Local Time) from KBYY Reporting Station
Clear Clear  
Wind Chill: 68°   Ceiling: Unl
Heat Index: 68°   Visibility: 10mi
Dew Point: 41°   Wind: 13mph
Humidity: 38%   Direction: 310°NW
Pressure: 30.06"   Gusts: NA
Location:  28.83°N, 95.94°W
Report Text: KBYY 252035Z AUTO 31011KT 10SM CLR 20/05 A3006 RMK AO2 T01990052
Loading
Personal Weather Stations






























Interactive Weather Map New forecast layout! Learn more

10-Day Weather Forecast

Advertisements
Track Severe Weather on mobile